Time;durP1;ratioP1;P1;durP2;ratioP2;P2;SDS_P1;SDS_P2;PMS_P1;PMS_P2;Temp;Humidity;BMP_temperature;BMP_pressure;BME280_temperature;BME280_humidity;BME280_pressure;Samples;Min_cycle;Max_cycle;Signal;HPM_P1;HPM_P2
2022/07/27 00:02:01;;;;;;;0.40;0.30;;;18.10;99.90;;;;;;5011708;28;21525;-67
2022/07/27 00:04:26;;;;;;;0.40;0.20;;;18.20;99.90;;;;;;5015294;28;20459;-67
2022/07/27 00:06:52;;;;;;;0.40;0.20;;;18.10;99.90;;;;;;5014557;28;20537;-67
2022/07/27 00:09:18;;;;;;;0.40;0.20;;;18.10;99.90;;;;;;5011936;28;20464;-67
2022/07/27 00:11:45;;;;;;;0.40;0.20;;;18.10;99.90;;;;;;5014289;28;20396;-67
2022/07/27 00:14:10;;;;;;;0.40;0.20;;;18.10;99.90;;;;;;5015147;28;20399;-67
2022/07/27 00:16:36;;;;;;;0.40;0.20;;;18.10;99.90;;;;;;5014649;28;20427;-67
2022/07/27 00:19:02;;;;;;;0.40;0.20;;;18.10;99.90;;;;;;5017520;28;20467;-67
2022/07/27 00:21:28;;;;;;;0.40;0.20;;;17.80;99.90;;;;;;5016403;28;20408;-67
2022/07/27 00:23:54;;;;;;;0.40;0.20;;;17.90;99.90;;;;;;5017483;28;20382;-67
2022/07/27 00:26:19;;;;;;;0.40;0.20;;;17.90;99.90;;;;;;5016706;28;20480;-67
2022/07/27 00:28:45;;;;;;;0.40;0.30;;;17.90;99.90;;;;;;5014358;28;21019;-67
2022/07/27 00:31:11;;;;;;;0.40;0.20;;;18.00;99.90;;;;;;5014124;28;20389;-67
2022/07/27 00:33:36;;;;;;;0.40;0.20;;;18.10;99.90;;;;;;5014293;28;20851;-67
2022/07/27 00:36:02;;;;;;;0.40;0.20;;;18.00;99.90;;;;;;5018464;28;20454;-67
2022/07/27 00:38:28;;;;;;;0.40;0.22;;;18.00;99.90;;;;;;5017612;28;20875;-68
2022/07/27 00:40:54;;;;;;;1.70;0.90;;;17.90;99.90;;;;;;5017832;28;20429;-67
2022/07/27 00:43:19;;;;;;;0.40;0.30;;;17.90;99.90;;;;;;5018939;28;20470;-67
2022/07/27 00:45:45;;;;;;;0.40;0.20;;;17.90;99.90;;;;;;5001387;28;20494;-67
2022/07/27 00:48:11;;;;;;;0.40;0.20;;;18.00;99.90;;;;;;5017165;28;20837;-67
2022/07/27 00:50:39;;;;;;;0.40;0.20;;;18.00;99.90;;;;;;5019089;28;20392;-67
2022/07/27 00:53:07;;;;;;;0.40;0.20;;;17.90;99.90;;;;;;5019579;28;20477;-67
2022/07/27 00:55:33;;;;;;;0.40;0.20;;;17.90;99.90;;;;;;5023239;28;20428;-67
2022/07/27 00:58:00;;;;;;;0.40;0.20;;;18.00;99.90;;;;;;5025354;28;20486;-68
2022/07/27 01:00:29;;;;;;;0.40;0.20;;;18.00;99.90;;;;;;5015681;28;20396;-67
2022/07/27 01:02:54;;;;;;;0.40;0.20;;;18.10;99.90;;;;;;5016135;28;20415;-68
2022/07/27 01:05:20;;;;;;;0.70;0.70;;;18.00;99.90;;;;;;5014526;28;20392;-68
2022/07/27 01:07:47;;;;;;;0.40;0.20;;;18.00;99.90;;;;;;5017028;28;20672;-68
2022/07/27 01:10:13;;;;;;;0.80;0.80;;;18.00;99.90;;;;;;5017058;28;20388;-68
2022/07/27 01:12:39;;;;;;;0.40;0.20;;;18.00;99.90;;;;;;5019449;28;20748;-68
2022/07/27 01:15:06;;;;;;;0.40;0.30;;;17.90;99.90;;;;;;5016638;28;20390;-67
2022/07/27 01:17:32;;;;;;;0.40;0.20;;;17.90;99.90;;;;;;5031327;28;20415;-67
2022/07/27 01:19:58;;;;;;;0.40;0.20;;;17.90;99.90;;;;;;5012649;28;20400;-67
2022/07/27 01:22:24;;;;;;;0.40;0.20;;;17.80;99.90;;;;;;5009337;28;20458;-67
2022/07/27 01:24:50;;;;;;;0.40;0.40;;;17.70;99.90;;;;;;5011894;28;20620;-69
2022/07/27 01:27:16;;;;;;;0.40;0.20;;;17.70;99.90;;;;;;5021539;28;20418;-67
2022/07/27 01:29:41;;;;;;;0.40;0.20;;;17.80;99.90;;;;;;5031391;28;20391;-69
2022/07/27 01:32:07;;;;;;;0.40;0.40;;;17.70;99.90;;;;;;5018461;28;22022;-67
2022/07/27 01:34:33;;;;;;;0.40;0.30;;;17.50;99.90;;;;;;5012162;28;20400;-68
2022/07/27 01:37:03;;;;;;;0.40;0.20;;;17.50;99.90;;;;;;5027275;28;20719;-69
2022/07/27 01:39:31;;;;;;;0.40;0.20;;;17.40;99.90;;;;;;5031872;28;20423;-67
2022/07/27 01:41:57;;;;;;;0.40;0.20;;;17.40;99.90;;;;;;5030223;28;20423;-68
2022/07/27 01:44:23;;;;;;;0.40;0.30;;;17.40;99.90;;;;;;5032623;28;20422;-68
2022/07/27 01:46:49;;;;;;;0.40;0.20;;;17.30;99.90;;;;;;5019734;28;20640;-68
2022/07/27 01:49:15;;;;;;;0.40;0.20;;;17.30;99.90;;;;;;5013043;28;20417;-67
2022/07/27 01:51:40;;;;;;;0.40;0.20;;;17.30;99.90;;;;;;5015912;28;20906;-67
2022/07/27 01:54:06;;;;;;;0.40;0.20;;;17.30;99.90;;;;;;5032740;28;20383;-67
2022/07/27 01:56:32;;;;;;;0.40;0.20;;;17.30;99.90;;;;;;5030923;28;20415;-67
2022/07/27 01:58:57;;;;;;;0.40;0.20;;;17.20;99.90;;;;;;5030559;28;20493;-66
2022/07/27 02:01:23;;;;;;;0.40;0.30;;;17.20;99.90;;;;;;5032266;28;20391;-67
2022/07/27 02:03:49;;;;;;;0.40;0.20;;;17.30;99.90;;;;;;5031142;28;20399;-67
2022/07/27 02:06:15;;;;;;;0.40;0.20;;;17.30;99.90;;;;;;5031298;28;20890;-67
2022/07/27 02:08:40;;;;;;;0.40;0.20;;;17.30;99.90;;;;;;5031699;28;20440;-67
2022/07/27 02:13:50;;;;;;;1.20;0.50;;;17.30;99.90;;;;;;5031322;28;20440;-67
2022/07/27 02:16:17;;;;;;;0.40;0.20;;;17.20;99.90;;;;;;5026596;28;20413;-67
2022/07/27 02:18:44;;;;;;;0.40;0.20;;;17.50;99.90;;;;;;5011475;28;20401;-67
2022/07/27 02:21:09;;;;;;;0.40;0.40;;;17.40;99.90;;;;;;5012000;28;20415;-67
2022/07/27 02:23:36;;;;;;;0.40;0.20;;;17.30;99.90;;;;;;5031378;28;20387;-67
2022/07/27 02:26:07;;;;;;;0.40;0.20;;;17.50;99.90;;;;;;5019914;28;20408;-67
2022/07/27 02:28:33;;;;;;;0.40;0.20;;;17.50;99.90;;;;;;5031937;28;20383;-67
2022/07/27 02:31:00;;;;;;;0.40;0.30;;;17.50;99.90;;;;;;5031188;28;20423;-67
2022/07/27 02:33:26;;;;;;;0.40;0.20;;;17.50;99.90;;;;;;5030877;28;20405;-67
2022/07/27 02:35:51;;;;;;;0.40;0.20;;;17.50;99.90;;;;;;5030269;28;20508;-67
2022/07/27 02:38:18;;;;;;;0.40;0.20;;;17.50;99.90;;;;;;5021824;28;20432;-67
2022/07/27 02:40:43;;;;;;;0.40;0.20;;;17.40;99.90;;;;;;5010961;28;20768;-67
2022/07/27 02:43:09;;;;;;;0.40;0.20;;;17.40;99.90;;;;;;5011225;28;20420;-67
2022/07/27 02:45:34;;;;;;;0.40;0.30;;;17.30;99.90;;;;;;5015137;28;20708;-67
2022/07/27 02:48:00;;;;;;;0.40;0.30;;;17.30;99.90;;;;;;5030878;28;20393;-67
2022/07/27 02:50:26;;;;;;;0.40;0.20;;;17.50;99.90;;;;;;5011976;28;20463;-67
2022/07/27 02:52:51;;;;;;;0.40;0.30;;;17.50;99.90;;;;;;5010938;28;20388;-67
2022/07/27 02:55:17;;;;;;;0.40;0.20;;;17.50;99.90;;;;;;5012750;28;20862;-68
2022/07/27 02:57:42;;;;;;;0.50;0.50;;;17.60;99.90;;;;;;5008673;28;20971;-68
2022/07/27 03:00:14;;;;;;;0.40;0.20;;;17.70;99.90;;;;;;5023691;28;20401;-67
2022/07/27 03:02:40;;;;;;;0.40;0.20;;;17.60;99.90;;;;;;5011483;28;20424;-67
2022/07/27 03:05:08;;;;;;;0.40;0.30;;;17.70;99.90;;;;;;5016846;28;20387;-68
2022/07/27 03:07:33;;;;;;;0.40;0.20;;;17.80;99.90;;;;;;5011583;28;20396;-68
2022/07/27 03:09:59;;;;;;;0.40;0.20;;;17.90;99.90;;;;;;5028551;28;20493;-68
2022/07/27 03:12:24;;;;;;;0.40;0.30;;;17.90;99.90;;;;;;5030831;28;20407;-67
2022/07/27 03:14:50;;;;;;;0.40;0.20;;;17.70;99.90;;;;;;5022535;28;20816;-67
2022/07/27 03:17:16;;;;;;;0.40;0.30;;;17.70;99.90;;;;;;5011190;28;20416;-67
2022/07/27 03:19:42;;;;;;;0.40;0.20;;;17.60;99.90;;;;;;5010071;28;20409;-67
2022/07/27 03:22:08;;;;;;;0.40;0.20;;;17.60;99.90;;;;;;5011584;28;20427;-68
2022/07/27 03:24:33;;;;;;;0.90;0.90;;;17.60;99.90;;;;;;5018551;28;20395;-68
2022/07/27 03:26:59;;;;;;;0.40;0.20;;;17.60;99.90;;;;;;5010228;28;20833;-67
2022/07/27 03:29:25;;;;;;;0.40;0.20;;;17.50;99.90;;;;;;5013409;28;20393;-68
2022/07/27 03:31:50;;;;;;;0.40;0.20;;;17.60;99.90;;;;;;5028699;28;20478;-67
2022/07/27 03:34:16;;;;;;;0.40;0.20;;;17.60;99.90;;;;;;5000183;28;20412;-67
2022/07/27 03:36:42;;;;;;;0.40;0.20;;;17.50;99.90;;;;;;5023289;28;20411;-66
2022/07/27 03:39:08;;;;;;;0.40;0.20;;;17.40;99.90;;;;;;5031153;28;20576;-68
2022/07/27 03:41:34;;;;;;;0.50;0.50;;;17.60;99.90;;;;;;5029252;28;20970;-67
2022/07/27 03:43:59;;;;;;;0.40;0.30;;;17.70;99.90;;;;;;5010258;28;20404;-68
2022/07/27 03:46:25;;;;;;;0.40;0.20;;;17.60;99.90;;;;;;5021461;28;20395;-68
2022/07/27 03:48:50;;;;;;;0.50;0.40;;;17.70;99.90;;;;;;5029935;28;20391;-68
2022/07/27 03:51:16;;;;;;;0.40;0.20;;;17.70;99.90;;;;;;5016359;28;20392;-67
2022/07/27 03:53:42;;;;;;;0.40;0.20;;;17.70;99.90;;;;;;5012602;28;20393;-67
2022/07/27 03:56:07;;;;;;;0.40;0.40;;;17.60;99.90;;;;;;5018977;28;20494;-68
2022/07/27 03:58:33;;;;;;;0.40;0.30;;;17.60;99.90;;;;;;5027099;28;20430;-67
2022/07/27 04:00:59;;;;;;;0.40;0.20;;;17.70;99.90;;;;;;5017499;28;20381;-68
2022/07/27 04:03:24;;;;;;;0.40;0.20;;;17.60;99.90;;;;;;5012771;28;20392;-67
2022/07/27 04:05:50;;;;;;;0.40;0.20;;;17.50;99.90;;;;;;5029330;28;20395;-67
2022/07/27 04:08:16;;;;;;;0.40;0.20;;;17.50;99.90;;;;;;5029076;28;20859;-67
2022/07/27 04:10:42;;;;;;;0.40;0.20;;;17.30;99.90;;;;;;5028975;28;20391;-67
2022/07/27 04:13:10;;;;;;;0.40;0.20;;;17.50;99.90;;;;;;5029967;28;20551;-67
2022/07/27 04:15:36;;;;;;;0.40;0.30;;;17.40;99.90;;;;;;5028953;28;20428;-68
2022/07/27 04:18:01;;;;;;;0.90;0.80;;;17.40;99.90;;;;;;5016340;28;20413;-68
2022/07/27 04:20:27;;;;;;;0.40;0.30;;;17.30;99.90;;;;;;5015116;28;20434;-68
2022/07/27 04:22:52;;;;;;;0.40;0.20;;;17.30;99.90;;;;;;5029474;28;20418;-67
2022/07/27 04:25:18;;;;;;;0.40;0.20;;;17.20;99.90;;;;;;5025701;28;20460;-68
2022/07/27 04:27:44;;;;;;;0.40;0.20;;;17.20;99.90;;;;;;5010160;28;20400;-67
2022/07/27 04:30:10;;;;;;;0.40;0.20;;;17.30;99.90;;;;;;5010413;28;20409;-68
2022/07/27 04:32:36;;;;;;;0.40;0.20;;;17.20;99.90;;;;;;5010781;28;20389;-68
2022/07/27 04:35:02;;;;;;;0.40;0.20;;;17.30;99.90;;;;;;5009499;28;20434;-67
2022/07/27 04:37:29;;;;;;;0.40;0.20;;;17.30;99.90;;;;;;5023340;28;20495;-68
2022/07/27 04:39:57;;;;;;;0.70;0.70;;;17.30;99.90;;;;;;5008251;28;20420;-67
2022/07/27 04:42:23;;;;;;;0.40;0.20;;;17.20;99.90;;;;;;5020249;28;20419;-68
2022/07/27 04:44:49;;;;;;;0.40;0.20;;;17.10;99.90;;;;;;5025680;28;20393;-68
2022/07/27 04:47:14;;;;;;;0.40;0.20;;;17.20;99.90;;;;;;5023129;28;20409;-68
2022/07/27 04:49:40;;;;;;;0.40;0.20;;;17.30;99.90;;;;;;5017471;28;20385;-67
2022/07/27 04:52:06;;;;;;;0.40;0.20;;;17.40;99.90;;;;;;5031403;28;20387;-67
2022/07/27 04:54:32;;;;;;;0.40;0.20;;;17.40;99.90;;;;;;5029540;28;20944;-67
2022/07/27 04:56:57;;;;;;;0.40;0.20;;;17.40;99.90;;;;;;5017823;28;20409;-67
2022/07/27 04:59:23;;;;;;;0.40;0.20;;;17.50;99.90;;;;;;5025802;28;20399;-67
2022/07/27 05:01:49;;;;;;;0.40;0.20;;;17.50;99.90;;;;;;5012631;28;20903;-68
2022/07/27 05:04:14;;;;;;;2.20;0.80;;;17.50;99.90;;;;;;5014239;28;20397;-68
2022/07/27 05:06:40;;;;;;;0.40;0.20;;;17.50;99.90;;;;;;5019832;28;20398;-68
2022/07/27 05:09:05;;;;;;;0.40;0.30;;;17.50;99.90;;;;;;5027781;28;20811;-68
2022/07/27 05:11:31;;;;;;;0.40;0.30;;;17.60;99.90;;;;;;5021902;28;20494;-68
2022/07/27 05:13:57;;;;;;;0.40;0.20;;;17.60;99.90;;;;;;5016759;28;20405;-68
2022/07/27 05:16:24;;;;;;;0.60;0.60;;;17.50;99.90;;;;;;5010516;28;20405;-68
2022/07/27 05:18:50;;;;;;;0.40;0.20;;;17.60;99.90;;;;;;5022750;28;20763;-68
2022/07/27 05:21:15;;;;;;;0.50;0.40;;;17.50;99.90;;;;;;5029471;28;20395;-68
2022/07/27 05:23:41;;;;;;;0.40;0.20;;;17.60;99.90;;;;;;5031949;28;20423;-68
2022/07/27 05:26:07;;;;;;;0.40;0.30;;;17.60;99.90;;;;;;5017301;28;20418;-68
2022/07/27 05:28:32;;;;;;;0.40;0.23;;;17.70;99.90;;;;;;5026127;28;20461;-68
2022/07/27 05:30:58;;;;;;;0.40;0.20;;;17.80;99.90;;;;;;5019523;28;20391;-67
2022/07/27 05:33:24;;;;;;;0.40;0.20;;;17.70;99.90;;;;;;5016798;28;20439;-68
2022/07/27 05:35:50;;;;;;;0.40;0.20;;;17.80;99.90;;;;;;5016330;28;20817;-68
2022/07/27 05:38:15;;;;;;;1.43;0.93;;;17.90;99.90;;;;;;5025396;28;20395;-68
2022/07/27 05:40:45;;;;;;;0.40;0.20;;;18.10;99.90;;;;;;5018994;28;20401;-68
2022/07/27 05:43:10;;;;;;;0.40;0.20;;;18.20;99.90;;;;;;5024975;28;20427;-68
2022/07/27 05:45:36;;;;;;;0.40;0.40;;;18.30;99.90;;;;;;5022654;28;20893;-67
2022/07/27 05:48:02;;;;;;;0.40;0.30;;;18.30;99.90;;;;;;5022479;28;21023;-67
2022/07/27 05:50:28;;;;;;;0.40;0.20;;;18.40;99.90;;;;;;5022101;28;20415;-67
2022/07/27 05:52:55;;;;;;;0.40;0.20;;;18.40;99.90;;;;;;5023856;28;20419;-68
2022/07/27 05:55:21;;;;;;;0.40;0.30;;;18.40;99.90;;;;;;5020988;28;20472;-68
2022/07/27 05:57:47;;;;;;;0.40;0.30;;;18.50;99.90;;;;;;5022427;28;20863;-68
2022/07/27 06:00:12;;;;;;;0.40;0.20;;;18.70;99.90;;;;;;5019800;28;20399;-68
2022/07/27 06:02:39;;;;;;;0.40;0.30;;;18.70;99.90;;;;;;5026559;28;20402;-68
2022/07/27 06:05:05;;;;;;;0.40;0.20;;;18.70;99.90;;;;;;5017118;28;20407;-68
2022/07/27 06:10:15;;;;;;;0.40;0.20;;;18.90;99.90;;;;;;5021667;28;20752;-67
2022/07/27 06:12:42;;;;;;;0.40;0.20;;;19.00;99.90;;;;;;5008869;28;20482;-68
2022/07/27 06:15:09;;;;;;;0.40;0.30;;;19.20;99.90;;;;;;5019759;28;20399;-68
2022/07/27 06:17:35;;;;;;;0.40;0.30;;;19.20;99.90;;;;;;5022276;28;20502;-68
2022/07/27 06:20:03;;;;;;;0.40;0.20;;;19.30;99.90;;;;;;5023409;28;20407;-68
2022/07/27 06:22:30;;;;;;;0.40;0.20;;;19.40;99.90;;;;;;5022666;28;20783;-68
2022/07/27 06:24:56;;;;;;;0.40;0.30;;;19.30;99.90;;;;;;5021976;28;20484;-69
2022/07/27 06:27:21;;;;;;;1.00;0.80;;;19.30;99.90;;;;;;5018242;28;20480;-68
2022/07/27 06:29:47;;;;;;;0.40;0.20;;;19.40;99.90;;;;;;5019166;28;20392;-69
2022/07/27 06:32:13;;;;;;;0.40;0.30;;;19.40;99.90;;;;;;4999492;28;20472;-68
2022/07/27 06:34:39;;;;;;;0.40;0.20;;;19.50;99.90;;;;;;5020194;28;20387;-68
2022/07/27 06:37:04;;;;;;;0.40;0.30;;;19.50;99.90;;;;;;5014861;28;20495;-68
2022/07/27 06:39:30;;;;;;;0.40;0.20;;;19.50;99.90;;;;;;5021281;28;20451;-68
2022/07/27 06:41:56;;;;;;;0.40;0.20;;;19.50;99.90;;;;;;5010672;28;20971;-68
2022/07/27 06:44:21;;;;;;;0.40;0.20;;;19.50;99.90;;;;;;4998006;28;20409;-68
2022/07/27 06:46:48;;;;;;;0.40;0.20;;;19.60;99.90;;;;;;5009030;28;20806;-69
2022/07/27 06:49:14;;;;;;;0.40;0.20;;;19.70;99.90;;;;;;5006912;28;20401;-68
2022/07/27 06:51:39;;;;;;;0.50;0.40;;;19.70;99.90;;;;;;4993752;28;20395;-68
2022/07/27 06:54:05;;;;;;;0.53;0.40;;;19.80;99.90;;;;;;4997274;28;21095;-68
2022/07/27 06:56:32;;;;;;;0.40;0.20;;;19.80;99.90;;;;;;5012157;28;20777;-68
2022/07/27 06:58:57;;;;;;;0.40;0.20;;;19.90;99.90;;;;;;5011545;28;20388;-68
2022/07/27 07:01:23;;;;;;;0.40;0.20;;;20.00;99.90;;;;;;4994882;28;20390;-68
2022/07/27 07:03:49;;;;;;;0.40;0.30;;;20.00;99.90;;;;;;4991634;28;20391;-68
2022/07/27 07:06:15;;;;;;;0.40;0.20;;;20.00;99.90;;;;;;4999380;28;20483;-68
2022/07/27 07:08:40;;;;;;;0.40;0.20;;;20.20;99.90;;;;;;5010258;28;20873;-68
2022/07/27 07:11:08;;;;;;;0.40;0.30;;;19.90;99.90;;;;;;4991539;28;21137;-68
2022/07/27 07:13:34;;;;;;;0.40;0.20;;;19.80;99.90;;;;;;4996928;28;20405;-68
2022/07/27 07:15:59;;;;;;;0.40;0.30;;;20.00;99.90;;;;;;5010824;28;20419;-68
2022/07/27 07:18:25;;;;;;;0.40;0.20;;;20.00;99.90;;;;;;5011562;28;20388;-68
2022/07/27 07:20:51;;;;;;;0.40;0.30;;;20.30;99.90;;;;;;5010796;28;20749;-68
2022/07/27 07:23:17;;;;;;;0.40;0.20;;;20.50;99.90;;;;;;5010438;28;20881;-68
2022/07/27 07:25:43;;;;;;;0.40;0.20;;;20.50;99.90;;;;;;4997281;28;20379;-68
2022/07/27 07:28:08;;;;;;;0.40;0.20;;;20.60;99.90;;;;;;4997075;28;20474;-68
2022/07/27 07:30:35;;;;;;;0.40;0.20;;;20.50;99.90;;;;;;5000258;28;20396;-68
2022/07/27 07:33:01;;;;;;;0.40;0.20;;;20.40;99.90;;;;;;5010861;28;20381;-68
2022/07/27 07:35:27;;;;;;;0.40;0.20;;;20.50;99.90;;;;;;5011269;28;20495;-68
2022/07/27 07:37:53;;;;;;;0.40;0.20;;;20.40;99.90;;;;;;5010786;28;20495;-68
2022/07/27 07:40:19;;;;;;;0.70;0.70;;;20.40;99.90;;;;;;5011532;28;20808;-67
2022/07/27 07:42:51;;;;;;;0.50;0.50;;;20.20;99.90;;;;;;5013733;28;20541;-68
2022/07/27 07:45:17;;;;;;;0.40;0.30;;;20.40;99.90;;;;;;5017629;28;20469;-68
2022/07/27 07:47:43;;;;;;;0.40;0.20;;;20.50;99.90;;;;;;5029192;28;20428;-68
2022/07/27 07:50:09;;;;;;;0.40;0.20;;;20.60;99.90;;;;;;5030213;28;20972;-68
2022/07/27 07:52:34;;;;;;;0.40;0.20;;;20.60;99.90;;;;;;5020680;28;20403;-68
2022/07/27 07:55:00;;;;;;;0.40;0.30;;;20.50;99.90;;;;;;5026713;28;20763;-68
2022/07/27 07:57:26;;;;;;;0.40;0.23;;;20.50;99.90;;;;;;5026134;28;20473;-68
2022/07/27 07:59:52;;;;;;;0.40;0.30;;;20.50;99.90;;;;;;5030287;28;20391;-68
2022/07/27 08:02:19;;;;;;;0.40;0.20;;;20.50;99.90;;;;;;5030870;28;20407;-68
2022/07/27 08:04:45;;;;;;;0.40;0.20;;;20.60;99.90;;;;;;5030926;28;20731;-68
2022/07/27 08:07:11;;;;;;;0.40;0.20;;;20.70;99.90;;;;;;5029999;28;20976;-67
2022/07/27 08:09:37;;;;;;;0.40;0.20;;;20.70;99.90;;;;;;5030973;28;20469;-67
2022/07/27 08:12:03;;;;;;;0.40;0.20;;;20.80;99.90;;;;;;5029965;28;20391;-68
2022/07/27 08:14:29;;;;;;;0.40;0.20;;;20.70;99.90;;;;;;5030902;28;20406;-67
2022/07/27 08:16:54;;;;;;;0.40;0.20;;;20.80;99.90;;;;;;5030006;28;20407;-68
2022/07/27 08:19:20;;;;;;;0.40;0.30;;;20.90;99.90;;;;;;5030771;28;20383;-68
2022/07/27 08:21:46;;;;;;;0.40;0.20;;;20.90;99.90;;;;;;5030743;28;20843;-68
2022/07/27 08:24:11;;;;;;;0.40;0.20;;;21.00;99.90;;;;;;5029993;28;20383;-68
2022/07/27 08:26:37;;;;;;;0.40;0.20;;;20.80;99.90;;;;;;5030968;28;20386;-68
2022/07/27 08:29:03;;;;;;;0.40;0.20;;;20.80;99.90;;;;;;5028692;28;20383;-68
2022/07/27 08:31:28;;;;;;;0.40;0.20;;;20.90;99.90;;;;;;5018392;28;20462;-67
2022/07/27 08:33:54;;;;;;;0.40;0.20;;;21.10;99.90;;;;;;5017880;28;20469;-67
2022/07/27 08:36:20;;;;;;;0.40;0.20;;;21.00;99.90;;;;;;5014471;28;20413;-67
2022/07/27 08:38:45;;;;;;;0.40;0.20;;;21.00;99.90;;;;;;5010828;28;20413;-68
2022/07/27 08:41:14;;;;;;;0.40;0.20;;;21.10;99.90;;;;;;5015923;28;20386;-70
2022/07/27 08:43:41;;;;;;;0.40;0.20;;;21.30;99.90;;;;;;5029937;28;20501;-69
2022/07/27 08:46:09;;;;;;;0.40;0.20;;;21.00;99.90;;;;;;5029685;28;20387;-68
2022/07/27 08:48:38;;;;;;;0.40;0.20;;;21.10;99.90;;;;;;5030640;28;20394;-67
2022/07/27 08:51:06;;;;;;;0.40;0.30;;;21.30;99.90;;;;;;5029911;28;20470;-68
2022/07/27 08:53:32;;;;;;;0.40;0.20;;;21.30;99.90;;;;;;5022814;28;20861;-68
2022/07/27 08:55:58;;;;;;;0.40;0.20;;;21.40;99.10;;;;;;5011225;28;20389;-68
2022/07/27 08:58:24;;;;;;;0.40;0.30;;;21.40;99.90;;;;;;5014544;28;20865;-68
2022/07/27 09:00:49;;;;;;;0.40;0.25;;;21.40;98.30;;;;;;5033029;28;20389;-68
2022/07/27 09:03:17;;;;;;;0.40;0.27;;;21.60;99.20;;;;;;5033460;28;20379;-68
2022/07/27 09:05:51;;;;;;;0.40;0.20;;;21.50;99.50;;;;;;5034003;28;20391;-68
2022/07/27 09:08:23;;;;;;;0.40;0.40;;;21.50;99.40;;;;;;5033382;28;20556;-69
2022/07/27 09:10:50;;;;;;;0.40;0.30;;;21.60;99.30;;;;;;5033789;28;20379;-68
2022/07/27 09:13:23;;;;;;;1.00;1.00;;;21.60;99.50;;;;;;5015696;28;20413;-68
2022/07/27 09:15:55;;;;;;;0.40;0.20;;;21.50;99.90;;;;;;5013926;28;20397;-68
2022/07/27 09:18:23;;;;;;;0.40;0.30;;;21.60;99.70;;;;;;5013593;28;20400;-68
2022/07/27 09:21:15;;;;;;;0.40;0.30;;;21.50;98.80;;;;;;5019800;28;20393;-68
2022/07/27 09:23:57;;;;;;;0.40;0.20;;;21.40;99.20;;;;;;5028094;28;20401;-68
2022/07/27 09:26:26;;;;;;;0.40;0.20;;;21.50;99.20;;;;;;5014865;28;20782;-68
2022/07/27 09:29:00;;;;;;;0.40;0.30;;;21.50;98.70;;;;;;5025211;28;20407;-68
2022/07/27 09:31:27;;;;;;;4.50;3.20;;;21.70;98.10;;;;;;5025851;28;20812;-68
2022/07/27 09:34:01;;;;;;;0.40;0.30;;;21.70;97.70;;;;;;5022099;28;20400;-68
2022/07/27 09:36:29;;;;;;;0.40;0.30;;;21.70;97.90;;;;;;5021630;28;20429;-69
2022/07/27 09:39:01;;;;;;;0.40;0.20;;;21.90;96.10;;;;;;5020417;28;20395;-70
2022/07/27 09:41:41;;;;;;;0.40;0.25;;;21.90;95.70;;;;;;5016983;28;20411;-70
2022/07/27 09:44:08;;;;;;;0.40;0.20;;;21.90;95.20;;;;;;5024258;28;20403;-70
2022/07/27 09:46:36;;;;;;;0.40;0.30;;;21.90;95.80;;;;;;5014935;28;20393;-69
2022/07/27 09:49:03;;;;;;;0.40;0.30;;;22.10;95.20;;;;;;5012454;28;20400;-68
2022/07/27 09:51:29;;;;;;;0.60;0.60;;;22.10;94.10;;;;;;5022861;28;20387;-69
2022/07/27 09:53:57;;;;;;;0.40;0.20;;;22.10;93.30;;;;;;5018010;28;20397;-69
2022/07/27 09:56:28;;;;;;;0.40;0.20;;;22.10;94.00;;;;;;5021741;28;20429;-68
2022/07/27 09:58:59;;;;;;;0.40;0.20;;;22.20;93.50;;;;;;5032926;28;20394;-69
2022/07/27 10:01:28;;;;;;;0.40;0.30;;;22.30;91.90;;;;;;5027983;28;20403;-69
2022/07/27 10:03:57;;;;;;;0.40;0.20;;;22.40;92.20;;;;;;5017251;28;20888;-69
2022/07/27 10:06:24;;;;;;;0.40;0.20;;;22.50;92.20;;;;;;5013422;28;20400;-69
2022/07/27 10:08:51;;;;;;;0.40;0.20;;;22.40;91.30;;;;;;5012302;28;20790;-68
2022/07/27 10:11:19;;;;;;;0.40;0.20;;;22.50;92.20;;;;;;5013239;28;20864;-69
2022/07/27 10:13:45;;;;;;;0.40;0.20;;;22.60;91.10;;;;;;5016189;28;20391;-67
2022/07/27 10:16:18;;;;;;;0.40;0.20;;;22.80;90.70;;;;;;5015597;28;20420;-69
2022/07/27 10:18:51;;;;;;;0.40;0.30;;;22.90;90.00;;;;;;5030625;28;20399;-68
2022/07/27 10:21:18;;;;;;;0.40;0.20;;;23.00;90.10;;;;;;5021262;28;20401;-68
2022/07/27 10:23:58;;;;;;;0.40;0.20;;;23.10;90.80;;;;;;5023224;28;20398;-68
2022/07/27 10:26:24;;;;;;;0.52;0.52;;;23.10;90.50;;;;;;5031927;28;20401;-67
2022/07/27 10:28:54;;;;;;;0.40;0.20;;;23.20;91.50;;;;;;5031084;28;20470;-67
2022/07/27 10:31:37;;;;;;;0.40;0.30;;;23.40;90.40;;;;;;5024146;28;20391;-68
2022/07/27 10:34:07;;;;;;;0.40;0.20;;;23.30;89.60;;;;;;5023122;28;20395;-69
2022/07/27 10:36:33;;;;;;;0.40;0.20;;;23.20;89.50;;;;;;5024927;28;20409;-69
2022/07/27 10:39:01;;;;;;;0.40;0.30;;;23.20;88.60;;;;;;5031985;28;20387;-68
2022/07/27 10:41:31;;;;;;;0.40;0.20;;;23.30;87.20;;;;;;5031766;28;20415;-69
2022/07/27 10:44:19;;;;;;;0.40;0.40;;;23.70;84.80;;;;;;5031732;28;20961;-69
2022/07/27 10:46:54;;;;;;;0.40;0.30;;;23.80;84.70;;;;;;5032245;28;20771;-69
2022/07/27 10:49:21;;;;;;;0.40;0.20;;;24.00;83.00;;;;;;5013796;28;20998;-69
2022/07/27 10:51:48;;;;;;;0.40;0.20;;;24.10;78.60;;;;;;5020175;28;20392;-69
2022/07/27 10:54:24;;;;;;;0.40;0.28;;;23.90;76.20;;;;;;5011582;28;20385;-69
2022/07/27 10:56:50;;;;;;;0.40;0.20;;;23.80;76.60;;;;;;5012213;28;20413;-69
2022/07/27 10:59:38;;;;;;;0.93;0.77;;;23.80;79.40;;;;;;5011358;28;20987;-69
2022/07/27 11:02:07;;;;;;;0.40;0.30;;;24.40;76.50;;;;;;5011279;28;20389;-68
2022/07/27 11:04:41;;;;;;;0.40;0.20;;;24.40;72.80;;;;;;5012232;28;20388;-69
2022/07/27 11:07:07;;;;;;;0.40;0.30;;;24.80;76.50;;;;;;5011281;28;20447;-68
2022/07/27 11:09:41;;;;;;;0.50;0.40;;;24.80;73.00;;;;;;5011933;28;20765;-68
2022/07/27 11:12:09;;;;;;;0.40;0.30;;;24.80;72.70;;;;;;5011016;28;20644;-69
2022/07/27 11:14:45;;;;;;;0.40;0.20;;;24.40;72.30;;;;;;5012030;28;20780;-68
2022/07/27 11:17:11;;;;;;;0.40;0.30;;;24.30;72.20;;;;;;5016492;28;20410;-68
2022/07/27 11:19:37;;;;;;;0.40;0.20;;;24.30;71.90;;;;;;5021450;28;20393;-69
2022/07/27 11:22:03;;;;;;;0.40;0.20;;;24.30;69.50;;;;;;5016968;28;20779;-68
2022/07/27 11:24:29;;;;;;;0.50;0.40;;;24.70;69.00;;;;;;5020116;28;20392;-67
2022/07/27 11:26:55;;;;;;;0.40;0.20;;;24.80;69.80;;;;;;5022595;28;20869;-68
2022/07/27 11:29:23;;;;;;;0.70;0.70;;;24.80;70.80;;;;;;5021852;28;20464;-68
2022/07/27 11:31:53;;;;;;;0.40;0.30;;;24.90;70.90;;;;;;5018286;28;20849;-68
2022/07/27 11:34:30;;;;;;;0.40;0.30;;;25.10;69.80;;;;;;5003416;28;20436;-67
2022/07/27 11:37:00;;;;;;;0.40;0.20;;;24.70;69.50;;;;;;5022371;28;20443;-68
2022/07/27 11:39:28;;;;;;;0.40;0.30;;;25.20;65.60;;;;;;5018353;28;20392;-68
2022/07/27 11:41:56;;;;;;;0.40;0.20;;;25.50;66.50;;;;;;5017570;28;20751;-69
2022/07/27 11:44:22;;;;;;;0.40;0.20;;;25.40;66.30;;;;;;4999065;28;20401;-69
2022/07/27 11:46:49;;;;;;;0.40;0.30;;;26.20;64.80;;;;;;5000181;28;20421;-68
2022/07/27 11:49:25;;;;;;;0.40;0.30;;;26.20;65.80;;;;;;4999709;28;20434;-69
2022/07/27 11:51:51;;;;;;;0.40;0.30;;;25.80;69.00;;;;;;4999707;28;20790;-67
2022/07/27 11:54:26;;;;;;;0.40;0.20;;;26.00;64.80;;;;;;5000565;28;20382;-68
2022/07/27 11:57:29;;;;;;;0.40;0.20;;;25.50;66.50;;;;;;5000919;28;20500;-68
2022/07/27 11:59:55;;;;;;;0.40;0.20;;;25.50;64.60;;;;;;4989506;28;20892;-68
2022/07/27 12:02:21;;;;;;;0.40;0.25;;;26.60;62.70;;;;;;5001230;28;20503;-69
2022/07/27 12:04:49;;;;;;;0.40;0.20;;;27.10;58.40;;;;;;4984222;28;20404;-69
2022/07/27 12:07:20;;;;;;;0.40;0.30;;;27.10;56.20;;;;;;4999173;28;20846;-69
2022/07/27 12:09:57;;;;;;;0.40;0.20;;;26.80;57.30;;;;;;4997920;28;20408;-69
2022/07/27 12:12:25;;;;;;;0.40;0.20;;;26.40;57.40;;;;;;5001108;28;20420;-70
2022/07/27 12:15:12;;;;;;;0.40;0.25;;;26.40;57.00;;;;;;4997520;28;20410;-68
2022/07/27 12:17:39;;;;;;;0.40;0.30;;;26.90;59.00;;;;;;4999976;28;20436;-67
2022/07/27 12:20:08;;;;;;;0.40;0.30;;;27.80;57.50;;;;;;4999047;28;20751;-68
2022/07/27 12:22:46;;;;;;;0.40;0.20;;;28.70;55.60;;;;;;5003206;28;20419;-68
2022/07/27 12:25:15;;;;;;;0.40;0.30;;;29.20;56.20;;;;;;4999491;28;20805;-68
2022/07/27 12:27:54;;;;;;;0.40;0.20;;;29.10;54.70;;;;;;5002013;28;20396;-68
2022/07/27 12:30:39;;;;;;;0.40;0.20;;;29.00;55.90;;;;;;4999882;28;20382;-68
2022/07/27 12:33:37;;;;;;;0.40;0.20;;;29.60;54.40;;;;;;5003468;28;20411;-68
2022/07/27 12:36:05;;;;;;;0.40;0.20;;;28.90;53.70;;;;;;5002824;28;20396;-68
2022/07/27 12:38:45;;;;;;;0.40;0.30;;;28.80;53.20;;;;;;5002755;28;20421;-68
2022/07/27 12:41:23;;;;;;;0.40;0.20;;;29.10;55.10;;;;;;5005775;28;20462;-69
2022/07/27 12:44:17;;;;;;;0.40;0.20;;;29.40;51.10;;;;;;5018307;28;20491;-67
2022/07/27 12:47:00;;;;;;;0.40;0.20;;;28.30;53.50;;;;;;5007141;28;20400;-68
2022/07/27 12:49:36;;;;;;;0.40;0.20;;;28.80;52.40;;;;;;5024223;28;20390;-67
2022/07/27 12:52:09;;;;;;;0.40;0.20;;;28.60;51.20;;;;;;5017020;28;20391;-67
2022/07/27 12:54:36;;;;;;;0.40;0.20;;;28.80;54.50;;;;;;5016188;28;20387;-68
2022/07/27 12:57:02;;;;;;;0.40;0.20;;;28.20;52.20;;;;;;5023726;28;20411;-67